createdAt,value
2023-05-05T00:02:26.456Z,2.50
2023-05-05T00:04:53.033Z,1.60
2023-05-05T00:07:19.486Z,1.45
2023-05-05T00:09:46.332Z,1.83
2023-05-05T00:12:12.903Z,1.98
2023-05-05T00:14:39.425Z,1.23
2023-05-05T00:17:05.860Z,1.40
2023-05-05T00:19:32.341Z,2.13
2023-05-05T00:21:58.761Z,1.60
2023-05-05T00:24:25.255Z,1.55
2023-05-05T00:26:51.801Z,1.30
2023-05-05T00:29:18.319Z,1.35
2023-05-05T00:31:44.763Z,2.20
2023-05-05T00:34:11.621Z,2.17
2023-05-05T00:36:38.668Z,1.90
2023-05-05T00:39:05.520Z,1.75
2023-05-05T00:41:32.021Z,1.75
2023-05-05T00:43:58.488Z,1.85
2023-05-05T00:46:26.379Z,1.90
2023-05-05T00:48:53.049Z,2.35
2023-05-05T00:51:20.003Z,2.05
2023-05-05T00:53:47.182Z,1.42
2023-05-05T00:56:14.349Z,1.52
2023-05-05T00:58:41.438Z,1.58
2023-05-05T01:01:08.253Z,1.73
2023-05-05T01:03:38.759Z,1.85
2023-05-05T01:06:32.720Z,2.38
2023-05-05T01:09:17.782Z,2.10
2023-05-05T01:12:02.952Z,1.80
2023-05-05T01:14:42.088Z,1.80
2023-05-05T01:17:15.955Z,1.80
2023-05-05T01:19:50.985Z,1.80
2023-05-05T01:22:19.975Z,1.80
2023-05-05T01:24:59.326Z,1.42
2023-05-05T01:27:34.886Z,2.20
2023-05-05T01:30:16.600Z,2.00
2023-05-05T01:32:47.709Z,2.08
2023-05-05T01:35:18.170Z,2.38
2023-05-05T01:37:50.644Z,2.03
2023-05-05T01:40:26.732Z,1.77
2023-05-05T01:42:54.238Z,2.03
2023-05-05T01:45:22.072Z,2.95
2023-05-05T01:47:48.810Z,2.28
2023-05-05T01:50:17.827Z,1.95
2023-05-05T01:52:45.335Z,1.88
2023-05-05T01:55:13.279Z,2.17
2023-05-05T01:57:41.513Z,2.80
2023-05-05T02:00:09.811Z,2.58
2023-05-05T02:02:42.840Z,2.15
2023-05-05T02:05:09.461Z,2.83
2023-05-05T02:07:36.425Z,2.25
2023-05-05T02:10:03.048Z,2.72
2023-05-05T02:12:30.756Z,2.47
2023-05-05T02:14:59.834Z,2.10
2023-05-05T02:17:26.933Z,3.13
2023-05-05T02:19:54.419Z,2.05
2023-05-05T02:22:20.893Z,2.38
2023-05-05T02:24:47.539Z,2.83
2023-05-05T02:27:16.037Z,2.50
2023-05-05T02:29:47.333Z,2.42
2023-05-05T02:32:34.846Z,2.45
2023-05-05T02:35:09.153Z,2.15
2023-05-05T02:37:40.720Z,2.45
2023-05-05T02:40:08.788Z,2.75
2023-05-05T02:42:37.056Z,2.47
2023-05-05T02:45:15.882Z,2.63
2023-05-05T02:47:45.778Z,1.98
2023-05-05T02:50:12.647Z,2.05
2023-05-05T02:52:45.743Z,2.90
2023-05-05T02:55:13.441Z,2.55
2023-05-05T02:57:44.676Z,1.77
2023-05-05T03:00:16.082Z,2.45
2023-05-05T03:03:03.150Z,3.42
2023-05-05T03:05:33.757Z,2.88
2023-05-05T03:08:05.388Z,2.40
2023-05-05T03:10:42.280Z,2.15
2023-05-05T03:13:10.186Z,1.83
2023-05-05T03:15:44.689Z,3.28
2023-05-05T03:18:12.171Z,2.95
2023-05-05T03:20:42.644Z,4.10
2023-05-05T03:23:13.236Z,3.10
2023-05-05T03:25:44.992Z,2.97
2023-05-05T03:28:18.063Z,2.85
2023-05-05T03:30:44.653Z,2.05
2023-05-05T03:33:12.767Z,2.08
2023-05-05T03:35:41.428Z,3.08
2023-05-05T03:38:10.736Z,2.67
2023-05-05T03:40:44.275Z,2.97
2023-05-05T03:43:14.279Z,2.90
2023-05-05T03:45:40.885Z,3.45
2023-05-05T03:48:09.583Z,2.60
2023-05-05T03:50:36.654Z,2.33
2023-05-05T03:53:03.587Z,3.42
2023-05-05T03:55:30.050Z,3.08
2023-05-05T03:57:56.554Z,4.07
2023-05-05T04:00:23.151Z,2.30
2023-05-05T04:02:49.742Z,2.22
2023-05-05T04:05:19.795Z,2.22
2023-05-05T04:07:46.828Z,3.25
2023-05-05T04:10:14.535Z,2.45
2023-05-05T04:12:41.094Z,2.88
2023-05-05T04:15:07.857Z,2.63
2023-05-05T04:17:34.732Z,2.03
2023-05-05T04:20:01.376Z,2.53
2023-05-05T04:22:29.863Z,3.08
2023-05-05T04:24:56.363Z,3.88
2023-05-05T04:27:22.907Z,2.33
2023-05-05T04:29:49.446Z,2.83
2023-05-05T04:32:16.021Z,3.10
2023-05-05T04:34:43.123Z,3.67
2023-05-05T04:37:10.061Z,4.03
2023-05-05T04:39:36.546Z,3.83
2023-05-05T04:42:03.470Z,3.50
2023-05-05T04:44:30.130Z,3.47
2023-05-05T04:46:56.703Z,3.72
2023-05-05T04:49:23.516Z,3.42
2023-05-05T04:51:50.236Z,3.08
2023-05-05T04:54:16.821Z,4.03
2023-05-05T04:56:43.327Z,4.30
2023-05-05T04:59:09.758Z,3.10
2023-05-05T05:01:38.436Z,3.42
2023-05-05T05:04:05.402Z,3.83
2023-05-05T05:06:32.265Z,3.22
2023-05-05T05:08:58.909Z,3.60
2023-05-05T05:11:25.490Z,3.72
2023-05-05T05:13:52.035Z,3.60
2023-05-05T05:16:18.817Z,3.67
2023-05-05T05:18:45.428Z,3.58
2023-05-05T05:21:12.663Z,3.72
2023-05-05T05:23:39.214Z,3.28
2023-05-05T05:26:06.601Z,3.97
2023-05-05T05:28:34.327Z,3.85
2023-05-05T05:31:02.357Z,4.63
2023-05-05T05:33:31.011Z,3.63
2023-05-05T05:35:58.602Z,3.80
2023-05-05T05:38:26.432Z,3.75
2023-05-05T05:40:56.581Z,4.47
2023-05-05T05:43:23.915Z,5.03
2023-05-05T05:45:50.501Z,4.57
2023-05-05T05:48:16.999Z,3.88
2023-05-05T05:50:43.806Z,5.50
2023-05-05T05:53:10.220Z,5.93
2023-05-05T05:55:36.820Z,4.45
2023-05-05T05:58:03.649Z,5.38
2023-05-05T06:00:30.243Z,5.85
2023-05-05T06:03:03.346Z,6.72
2023-05-05T06:05:33.244Z,6.40
2023-05-05T06:07:59.842Z,5.75
2023-05-05T06:10:28.603Z,5.93
2023-05-05T06:13:05.359Z,6.63
2023-05-05T06:15:33.733Z,6.97
2023-05-05T06:18:02.197Z,6.72
2023-05-05T06:20:28.742Z,5.03
2023-05-05T06:22:55.671Z,6.65
2023-05-05T06:25:23.294Z,6.93
2023-05-05T06:27:51.146Z,7.57
2023-05-05T06:30:17.753Z,6.03
2023-05-05T06:32:44.276Z,6.28
2023-05-05T06:35:11.003Z,5.55
2023-05-05T06:37:37.454Z,6.72
2023-05-05T06:40:04.156Z,6.25
2023-05-05T06:42:32.100Z,5.45
2023-05-05T06:44:59.277Z,5.63
2023-05-05T06:47:26.013Z,6.40
2023-05-05T06:49:52.632Z,6.47
2023-05-05T06:52:19.075Z,5.28
2023-05-05T06:54:45.580Z,5.65
2023-05-05T06:57:12.045Z,6.03
2023-05-05T06:59:38.567Z,6.97
2023-05-05T07:02:05.046Z,5.63
2023-05-05T07:04:31.619Z,5.15
2023-05-05T07:06:58.620Z,5.13
2023-05-05T07:09:25.102Z,5.32
2023-05-05T07:11:51.765Z,5.88
2023-05-05T07:14:18.262Z,4.72
2023-05-05T07:16:44.700Z,5.53
2023-05-05T07:19:11.152Z,3.95
2023-05-05T07:21:39.599Z,5.95
2023-05-05T07:24:06.289Z,3.40
2023-05-05T07:26:32.775Z,4.72
2023-05-05T07:28:59.318Z,5.03
2023-05-05T07:31:26.346Z,4.18
2023-05-05T07:33:52.826Z,4.13
2023-05-05T07:36:19.451Z,4.47
2023-05-05T07:38:45.857Z,3.85
2023-05-05T07:41:12.985Z,4.20
2023-05-05T07:43:42.811Z,3.88
2023-05-05T07:46:10.922Z,4.25
2023-05-05T07:48:37.613Z,3.58
2023-05-05T07:51:04.123Z,2.90
2023-05-05T07:53:30.962Z,3.10
2023-05-05T07:55:57.397Z,3.35
2023-05-05T07:58:24.010Z,4.07
2023-05-05T08:00:51.159Z,3.35
2023-05-05T08:03:19.936Z,4.30
2023-05-05T08:05:46.871Z,3.20
2023-05-05T08:08:13.383Z,4.03
2023-05-05T08:10:39.880Z,2.95
2023-05-05T08:13:06.423Z,4.13
2023-05-05T08:15:32.974Z,5.05
2023-05-05T08:17:59.741Z,4.28
2023-05-05T08:20:27.974Z,3.60
2023-05-05T08:22:54.501Z,2.92
2023-05-05T08:25:21.064Z,5.43
2023-05-05T08:27:47.544Z,3.75
2023-05-05T08:30:14.244Z,3.45
2023-05-05T08:32:40.857Z,3.75
2023-05-05T08:35:07.950Z,3.45
2023-05-05T08:37:34.671Z,4.50
2023-05-05T08:40:01.381Z,5.03
2023-05-05T08:42:36.903Z,3.25
2023-05-05T08:45:04.399Z,4.55
2023-05-05T08:47:32.271Z,4.50
2023-05-05T08:49:59.150Z,3.83
2023-05-05T08:52:27.967Z,3.03
2023-05-05T08:55:00.875Z,4.28
2023-05-05T08:57:39.831Z,3.55
2023-05-05T09:00:07.970Z,3.80
2023-05-05T09:02:34.880Z,2.88
2023-05-05T09:05:05.369Z,2.53
2023-05-05T09:07:32.379Z,3.38
2023-05-05T09:10:00.246Z,3.95
2023-05-05T09:12:30.487Z,2.60
2023-05-05T09:14:59.040Z,3.03
2023-05-05T09:17:26.750Z,2.80
2023-05-05T09:20:06.950Z,2.78
2023-05-05T09:22:40.553Z,3.80
2023-05-05T09:25:08.757Z,2.72
2023-05-05T09:27:36.190Z,2.30
2023-05-05T09:30:03.460Z,2.47
2023-05-05T09:32:30.664Z,1.67
2023-05-05T09:35:01.609Z,2.13
2023-05-05T09:37:31.425Z,2.38
2023-05-05T09:40:00.436Z,2.67
2023-05-05T09:42:27.209Z,2.38
2023-05-05T09:44:54.267Z,2.40
2023-05-05T09:47:29.527Z,1.88
2023-05-05T09:49:57.613Z,3.25
2023-05-05T09:52:24.197Z,2.72
2023-05-05T09:54:54.266Z,1.38
2023-05-05T09:57:31.649Z,1.42
2023-05-05T09:59:58.973Z,1.33
2023-05-05T10:02:33.176Z,1.27
2023-05-05T10:05:07.039Z,1.55
2023-05-05T10:07:33.761Z,1.00
2023-05-05T10:10:00.545Z,1.00
2023-05-05T10:12:27.406Z,3.38
2023-05-05T10:14:55.388Z,2.30
2023-05-05T10:17:23.134Z,1.23
2023-05-05T10:19:56.861Z,0.75
2023-05-05T10:22:23.431Z,1.58
2023-05-05T10:24:56.705Z,0.95
2023-05-05T10:27:23.516Z,1.92
2023-05-05T10:29:59.296Z,0.88
2023-05-05T10:35:08.723Z,1.23
2023-05-05T10:37:37.063Z,0.77
2023-05-05T10:40:04.023Z,2.08
2023-05-05T10:42:32.063Z,1.40
2023-05-05T10:44:58.597Z,0.55
2023-05-05T10:47:26.949Z,1.33
2023-05-05T10:49:55.700Z,0.98
2023-05-05T10:52:25.142Z,0.95
2023-05-05T10:54:57.927Z,1.02
2023-05-05T10:57:26.969Z,1.65
2023-05-05T10:59:53.411Z,0.68
2023-05-05T11:02:27.199Z,0.70
2023-05-05T11:05:06.136Z,1.25
2023-05-05T11:07:34.358Z,1.23
2023-05-05T11:10:02.042Z,0.80
2023-05-05T11:12:29.503Z,1.05
2023-05-05T11:15:14.840Z,1.58
2023-05-05T11:17:45.389Z,1.00
2023-05-05T11:20:11.954Z,1.55
2023-05-05T11:22:57.249Z,0.90
2023-05-05T11:25:42.049Z,0.60
2023-05-05T11:28:08.648Z,0.80
2023-05-05T11:30:36.240Z,1.35
2023-05-05T11:33:21.600Z,1.50
2023-05-05T11:35:54.220Z,1.70
2023-05-05T11:38:23.301Z,1.45
2023-05-05T11:40:50.336Z,1.50
2023-05-05T11:43:18.799Z,1.65
2023-05-05T11:45:45.625Z,2.22
2023-05-05T11:48:26.000Z,1.85
2023-05-05T11:50:53.434Z,2.30
2023-05-05T11:53:19.927Z,2.40
2023-05-05T11:55:46.617Z,1.70
2023-05-05T11:58:19.467Z,1.75
2023-05-05T12:00:46.094Z,1.38
2023-05-05T12:03:12.770Z,1.35
2023-05-05T12:05:39.403Z,1.35
2023-05-05T12:08:06.225Z,0.98
2023-05-05T12:10:32.687Z,0.70
2023-05-05T12:12:59.528Z,0.95
2023-05-05T12:15:30.355Z,1.33
2023-05-05T12:17:56.886Z,1.00
2023-05-05T12:20:33.142Z,1.33
2023-05-05T12:23:00.582Z,0.77
2023-05-05T12:25:34.232Z,1.48
2023-05-05T12:28:00.708Z,1.50
2023-05-05T12:30:27.211Z,1.40
2023-05-05T12:33:00.420Z,1.98
2023-05-05T12:35:27.086Z,1.67
2023-05-05T12:37:53.712Z,2.03
2023-05-05T12:40:38.859Z,1.70
2023-05-05T12:43:06.087Z,1.70
2023-05-05T12:45:32.739Z,1.90
2023-05-05T12:47:59.254Z,2.67
2023-05-05T12:50:32.322Z,2.03
2023-05-05T12:52:58.821Z,1.63
2023-05-05T12:55:37.557Z,1.90
2023-05-05T12:58:07.118Z,2.60
2023-05-05T13:00:33.641Z,1.90
2023-05-05T13:03:00.337Z,2.13
2023-05-05T13:05:31.533Z,1.80
2023-05-05T13:07:58.407Z,1.88
2023-05-05T13:10:25.154Z,1.92
2023-05-05T13:12:54.479Z,1.65
2023-05-05T13:15:20.924Z,2.45
2023-05-05T13:17:47.616Z,2.05
2023-05-05T13:20:14.132Z,3.20
2023-05-05T13:22:40.715Z,1.85
2023-05-05T13:25:07.866Z,2.22
2023-05-05T13:27:34.613Z,1.83
2023-05-05T13:30:01.546Z,2.50
2023-05-05T13:32:28.123Z,2.55
2023-05-05T13:34:54.644Z,2.13
2023-05-05T13:37:21.291Z,2.40
2023-05-05T13:39:47.731Z,2.33
2023-05-05T13:42:14.184Z,1.60
2023-05-05T13:44:40.601Z,1.70
2023-05-05T13:47:07.384Z,2.35
2023-05-05T13:49:34.839Z,2.85
2023-05-05T13:52:01.508Z,1.70
2023-05-05T13:54:28.065Z,1.58
2023-05-05T13:56:54.513Z,2.35
2023-05-05T13:59:21.733Z,1.55
2023-05-05T14:01:48.659Z,0.88
2023-05-05T14:04:15.123Z,0.50
2023-05-05T14:06:41.613Z,0.65
2023-05-05T14:09:08.158Z,0.52
2023-05-05T14:11:34.654Z,0.68
2023-05-05T14:14:01.396Z,0.57
2023-05-05T14:16:27.901Z,1.08
2023-05-05T14:18:54.398Z,0.50
2023-05-05T14:21:20.897Z,0.90
2023-05-05T14:23:47.320Z,0.57
2023-05-05T14:26:13.756Z,0.40
2023-05-05T14:28:40.202Z,0.90
2023-05-05T14:31:06.778Z,0.85
2023-05-05T14:33:33.188Z,0.65
2023-05-05T14:35:59.953Z,0.73
2023-05-05T14:38:26.405Z,0.93
2023-05-05T14:40:52.978Z,0.43
2023-05-05T14:43:20.687Z,0.43
2023-05-05T14:45:47.174Z,0.50
2023-05-05T14:48:13.643Z,0.82
2023-05-05T14:50:42.194Z,1.15
2023-05-05T14:53:08.861Z,0.55
2023-05-05T14:55:35.383Z,1.02
2023-05-05T14:58:01.851Z,0.50
2023-05-05T15:00:28.632Z,0.47
2023-05-05T15:02:55.148Z,0.70
2023-05-05T15:05:21.607Z,0.30
2023-05-05T15:07:57.170Z,0.60
2023-05-05T15:10:23.711Z,0.30
2023-05-05T15:12:51.056Z,0.40
2023-05-05T15:15:17.604Z,0.32
2023-05-05T15:17:44.155Z,0.40
2023-05-05T15:20:11.066Z,0.82
2023-05-05T15:22:37.614Z,0.57
2023-05-05T15:25:04.309Z,0.90
2023-05-05T15:27:31.690Z,1.17
2023-05-05T15:29:58.274Z,0.38
2023-05-05T15:32:24.781Z,0.70
2023-05-05T15:34:51.255Z,1.05
2023-05-05T15:37:17.730Z,0.47
2023-05-05T15:39:44.194Z,0.93
2023-05-05T15:42:10.643Z,0.60
2023-05-05T15:44:37.167Z,0.90
2023-05-05T15:47:03.927Z,0.63
2023-05-05T15:49:30.420Z,0.77
2023-05-05T15:51:57.085Z,0.70
2023-05-05T15:54:23.520Z,0.98
2023-05-05T15:56:49.978Z,0.80
2023-05-05T15:59:16.399Z,0.82
2023-05-05T16:01:43.976Z,0.70
2023-05-05T16:04:10.673Z,0.95
2023-05-05T16:06:37.151Z,0.85
2023-05-05T16:09:03.842Z,0.63
2023-05-05T16:11:30.823Z,0.93
2023-05-05T16:13:57.324Z,1.45
2023-05-05T16:16:23.752Z,0.73
2023-05-05T16:18:50.576Z,1.40
2023-05-05T16:21:17.085Z,1.10
2023-05-05T16:23:43.609Z,1.67
2023-05-05T16:26:10.121Z,1.90
2023-05-05T16:28:37.555Z,1.73
2023-05-05T16:31:04.112Z,1.65
2023-05-05T16:33:30.660Z,1.50
2023-05-05T16:35:57.154Z,3.00
2023-05-05T16:38:23.632Z,1.52
2023-05-05T16:40:50.413Z,3.72
2023-05-05T16:43:16.890Z,3.63
2023-05-05T16:45:43.550Z,2.67
2023-05-05T16:48:10.354Z,2.00
2023-05-05T16:50:36.786Z,2.53
2023-05-05T16:53:03.257Z,4.90
2023-05-05T16:55:29.809Z,1.90
2023-05-05T16:57:56.469Z,2.58
2023-05-05T17:00:22.942Z,3.03
2023-05-05T17:02:50.127Z,2.65
2023-05-05T17:05:17.615Z,4.55
2023-05-05T17:07:44.203Z,4.70
2023-05-05T17:10:10.827Z,3.92
2023-05-05T17:12:37.403Z,2.90
2023-05-05T17:15:04.185Z,4.40
2023-05-05T17:17:30.780Z,5.20
2023-05-05T17:19:57.341Z,4.47
2023-05-05T17:22:23.868Z,4.20
2023-05-05T17:24:50.882Z,3.65
2023-05-05T17:27:17.352Z,2.60
2023-05-05T17:29:43.796Z,3.65
2023-05-05T17:32:10.453Z,3.47
2023-05-05T17:34:37.176Z,3.78
2023-05-05T17:37:03.731Z,2.03
2023-05-05T17:39:30.948Z,2.17
2023-05-05T17:41:57.394Z,2.90
2023-05-05T17:44:23.882Z,2.30
2023-05-05T17:46:50.588Z,2.55
2023-05-05T17:49:17.064Z,1.55
2023-05-05T17:51:43.506Z,2.50
2023-05-05T17:54:09.968Z,1.30
2023-05-05T17:56:37.987Z,1.67
2023-05-05T17:59:04.454Z,1.55
2023-05-05T18:01:30.897Z,1.88
2023-05-05T18:03:57.423Z,1.63
2023-05-05T18:06:23.867Z,1.33
2023-05-05T18:08:50.294Z,1.67
2023-05-05T18:11:16.769Z,1.33
2023-05-05T18:13:43.569Z,1.75
2023-05-05T18:16:10.061Z,1.60
2023-05-05T18:18:36.612Z,1.52
2023-05-05T18:21:03.099Z,1.98
2023-05-05T18:23:29.590Z,1.35
2023-05-05T18:25:56.049Z,1.95
2023-05-05T18:28:22.553Z,1.52
2023-05-05T18:30:48.985Z,1.83
2023-05-05T18:33:15.983Z,2.42
2023-05-05T18:35:42.489Z,4.22
2023-05-05T18:38:08.976Z,1.15
2023-05-05T18:40:35.663Z,2.60
2023-05-05T18:43:02.313Z,2.25
2023-05-05T18:45:28.850Z,1.95
2023-05-05T18:47:56.325Z,1.67
2023-05-05T18:50:23.143Z,2.08
2023-05-05T18:52:49.607Z,2.53
2023-05-05T18:55:16.113Z,2.25
2023-05-05T18:57:42.678Z,2.28
2023-05-05T19:00:09.916Z,2.10
2023-05-05T19:02:36.907Z,1.85
2023-05-05T19:05:03.840Z,2.15
2023-05-05T19:10:16.850Z,2.50
2023-05-05T19:12:43.337Z,3.03
2023-05-05T19:15:10.265Z,1.63
2023-05-05T19:17:36.971Z,2.65
2023-05-05T19:20:03.688Z,3.22
2023-05-05T19:22:30.118Z,1.85
2023-05-05T19:24:56.599Z,2.28
2023-05-05T19:27:23.101Z,2.65
2023-05-05T19:29:52.236Z,2.70
2023-05-05T19:32:19.563Z,2.45
2023-05-05T19:34:46.569Z,3.50
2023-05-05T19:37:13.138Z,3.60
2023-05-05T19:39:39.684Z,2.45
2023-05-05T19:42:06.481Z,2.55
2023-05-05T19:44:32.976Z,2.53
2023-05-05T19:46:59.484Z,1.85
2023-05-05T19:49:26.204Z,2.45
2023-05-05T19:51:54.356Z,2.50
2023-05-05T19:54:21.207Z,0.35
2023-05-05T19:56:47.680Z,0.50
2023-05-05T19:59:14.101Z,0.22
2023-05-05T20:01:40.753Z,0.10
2023-05-05T20:04:07.236Z,0.00
2023-05-05T20:06:33.953Z,2.38
2023-05-05T20:09:00.499Z,2.83
2023-05-05T20:11:26.950Z,3.28
2023-05-05T20:13:53.380Z,3.47
2023-05-05T20:16:19.998Z,2.88
2023-05-05T20:18:46.521Z,2.92
2023-05-05T20:21:13.247Z,2.22
2023-05-05T20:23:39.847Z,2.60
2023-05-05T20:26:06.709Z,1.98
2023-05-05T20:28:33.204Z,3.13
2023-05-05T20:31:00.800Z,2.42
2023-05-05T20:33:28.160Z,3.17
2023-05-05T20:35:54.968Z,2.92
2023-05-05T20:38:21.392Z,2.42
2023-05-05T20:40:47.847Z,2.20
2023-05-05T20:43:14.277Z,3.35
2023-05-05T20:45:41.218Z,2.88
2023-05-05T20:48:09.852Z,2.33
2023-05-05T20:50:39.676Z,2.83
2023-05-05T20:53:09.869Z,3.75
2023-05-05T20:55:36.407Z,2.90
2023-05-05T20:58:04.223Z,3.13
2023-05-05T21:00:30.760Z,3.22
2023-05-05T21:02:57.331Z,4.72
2023-05-05T21:05:23.881Z,4.05
2023-05-05T21:07:50.422Z,4.22
2023-05-05T21:10:16.911Z,2.90
2023-05-05T21:12:43.410Z,2.28
2023-05-05T21:15:10.543Z,2.95
2023-05-05T21:17:37.438Z,3.83
2023-05-05T21:20:04.046Z,3.95
2023-05-05T21:22:30.707Z,3.47
2023-05-05T21:25:15.983Z,3.60
2023-05-05T21:27:42.555Z,3.95
2023-05-05T21:30:11.044Z,4.30
2023-05-05T21:32:38.362Z,3.80
2023-05-05T21:35:06.012Z,4.57
2023-05-05T21:37:32.628Z,4.38
2023-05-05T21:39:59.121Z,4.90
2023-05-05T21:42:25.749Z,5.18
2023-05-05T21:44:52.206Z,4.53
2023-05-05T21:47:18.727Z,5.05
2023-05-05T21:49:45.278Z,4.28
2023-05-05T21:52:11.909Z,3.85
2023-05-05T21:54:38.352Z,4.50
2023-05-05T21:57:04.796Z,4.28
2023-05-05T21:59:31.235Z,4.65
2023-05-05T22:01:57.683Z,4.85
2023-05-05T22:04:24.208Z,4.28
2023-05-05T22:06:50.902Z,6.00
2023-05-05T22:09:17.393Z,6.03
2023-05-05T22:11:43.821Z,6.40
2023-05-05T22:14:10.404Z,4.97
2023-05-05T22:16:36.981Z,5.85
2023-05-05T22:19:03.466Z,5.10
2023-05-05T22:21:29.972Z,4.57
2023-05-05T22:23:56.447Z,5.25
2023-05-05T22:26:22.936Z,5.40
2023-05-05T22:28:49.438Z,4.70
2023-05-05T22:31:16.442Z,5.55
2023-05-05T22:33:42.951Z,3.17
2023-05-05T22:36:10.178Z,5.03
2023-05-05T22:38:36.962Z,3.78
2023-05-05T22:41:03.564Z,6.80
2023-05-05T22:43:30.053Z,5.53
2023-05-05T22:45:56.580Z,8.80
2023-05-05T22:48:23.101Z,7.05
2023-05-05T22:50:49.581Z,6.20
2023-05-05T22:53:16.091Z,4.03
2023-05-05T22:55:42.706Z,5.28
2023-05-05T22:58:09.170Z,6.22
2023-05-05T23:00:35.725Z,4.18
2023-05-05T23:03:02.322Z,7.07
2023-05-05T23:05:28.922Z,5.38
2023-05-05T23:07:55.502Z,5.85
2023-05-05T23:10:21.967Z,5.10
2023-05-05T23:12:48.425Z,5.15
2023-05-05T23:15:14.876Z,6.57
2023-05-05T23:17:41.362Z,6.25
2023-05-05T23:20:09.673Z,6.25
2023-05-05T23:22:36.291Z,5.13
2023-05-05T23:25:02.872Z,7.18
2023-05-05T23:27:29.353Z,5.05
2023-05-05T23:29:55.784Z,4.47
2023-05-05T23:32:22.282Z,4.60
2023-05-05T23:34:48.712Z,5.13
2023-05-05T23:37:15.279Z,4.75
2023-05-05T23:39:41.905Z,9.68
2023-05-05T23:42:08.499Z,9.15
2023-05-05T23:44:34.945Z,4.40
2023-05-05T23:47:01.391Z,5.90
2023-05-05T23:49:27.958Z,6.18
2023-05-05T23:51:54.418Z,5.18
2023-05-05T23:54:20.848Z,4.63
2023-05-05T23:56:50.394Z,4.88
2023-05-05T23:59:16.906Z,8.80
